createdAt,value
2019-06-08T00:01:32.042Z,1004.45
2019-06-08T00:02:32.101Z,1004.46
2019-06-08T00:04:25.142Z,1004.49
2019-06-08T00:05:25.159Z,1004.49
2019-06-08T00:07:18.892Z,1004.54
2019-06-08T00:08:19.150Z,1004.54
2019-06-08T00:10:11.208Z,1004.58
2019-06-08T00:11:11.250Z,1004.61
2019-06-08T00:13:04.269Z,1004.56
2019-06-08T00:14:04.298Z,1004.55
2019-06-08T00:15:57.281Z,1004.60
2019-06-08T00:16:57.342Z,1004.60
2019-06-08T00:18:50.358Z,1004.64
2019-06-08T00:19:50.388Z,1004.70
2019-06-08T00:21:43.376Z,1004.71
2019-06-08T00:22:43.441Z,1004.63
2019-06-08T00:24:36.457Z,1004.76
2019-06-08T00:25:36.486Z,1004.86
2019-06-08T00:27:29.481Z,1004.87
2019-06-08T00:28:29.542Z,1004.76
2019-06-08T00:30:22.543Z,1004.87
2019-06-08T00:31:22.593Z,1004.82
2019-06-08T00:33:16.871Z,1004.83
2019-06-08T00:34:16.568Z,1004.89
2019-06-08T00:36:08.656Z,1004.88
2019-06-08T00:37:08.683Z,1004.82
2019-06-08T00:39:01.669Z,1004.91
2019-06-08T00:40:01.736Z,1004.81
2019-06-08T00:41:54.746Z,1004.81
2019-06-08T00:42:54.772Z,1004.77
2019-06-08T00:44:47.760Z,1004.81
2019-06-08T00:45:47.822Z,1004.77
2019-06-08T00:47:47.502Z,1004.72
2019-06-08T00:48:40.872Z,1004.78
2019-06-08T00:50:33.861Z,1004.77
2019-06-08T00:51:33.924Z,1004.77
2019-06-08T00:53:26.925Z,1004.75
2019-06-08T00:54:26.970Z,1004.73
2019-06-08T00:56:19.990Z,1004.80
2019-06-08T00:57:20.017Z,1004.79
2019-06-08T00:59:13.012Z,1004.84
2019-06-08T01:00:13.060Z,1004.84
2019-06-08T01:02:06.048Z,1004.89
2019-06-08T01:03:06.110Z,1004.89
2019-06-08T01:04:59.110Z,1004.88
2019-06-08T01:05:59.154Z,1004.99
2019-06-08T01:07:52.158Z,1004.98
2019-06-08T01:08:52.200Z,1004.95
2019-06-08T01:10:45.182Z,1004.99
2019-06-08T01:11:45.242Z,1004.97
2019-06-08T01:13:38.245Z,1005.01
2019-06-08T01:14:38.293Z,1004.98
2019-06-08T01:16:31.285Z,1005.05
2019-06-08T01:17:31.347Z,1005.03
2019-06-08T01:19:25.191Z,1005.08
2019-06-08T01:20:25.628Z,1005.05
2019-06-08T01:22:17.397Z,1005.00
2019-06-08T01:23:17.440Z,1005.06
2019-06-08T01:25:10.428Z,1004.94
2019-06-08T01:26:10.487Z,1005.04
2019-06-08T01:28:03.482Z,1005.06
2019-06-08T01:29:03.531Z,1005.04
2019-06-08T01:30:56.519Z,1005.03
2019-06-08T01:31:56.582Z,1005.04
2019-06-08T01:33:49.584Z,1005.03
2019-06-08T01:34:49.642Z,1005.04
2019-06-08T01:36:42.640Z,1004.99
2019-06-08T01:37:42.673Z,1005.02
2019-06-08T01:39:35.657Z,1004.99
2019-06-08T01:40:35.718Z,1005.02
2019-06-08T01:42:29.733Z,1005.00
2019-06-08T01:43:29.652Z,1005.01
2019-06-08T01:45:21.758Z,1004.98
2019-06-08T01:46:21.931Z,1005.03
2019-06-08T01:48:20.208Z,1005.05
2019-06-08T01:49:14.874Z,1005.01
2019-06-08T01:51:07.864Z,1005.01
2019-06-08T01:52:07.918Z,1004.99
2019-06-08T01:54:00.929Z,1004.98
2019-06-08T01:55:00.972Z,1005.00
2019-06-08T01:56:53.958Z,1004.87
2019-06-08T01:57:54.021Z,1004.84
2019-06-08T01:59:47.028Z,1004.89
2019-06-08T02:00:47.065Z,1004.96
2019-06-08T02:02:40.082Z,1004.89
2019-06-08T02:03:40.117Z,1004.93
2019-06-08T02:05:34.447Z,1004.86
2019-06-08T02:06:34.555Z,1004.91
2019-06-08T02:08:26.550Z,1004.89
2019-06-08T02:09:26.563Z,1004.86
2019-06-08T02:11:19.190Z,1004.86
2019-06-08T02:12:19.251Z,1004.84
2019-06-08T02:14:12.301Z,1004.82
2019-06-08T02:15:12.327Z,1004.83
2019-06-08T02:17:05.314Z,1004.86
2019-06-08T02:18:05.378Z,1004.82
2019-06-08T02:19:58.377Z,1004.87
2019-06-08T02:20:58.422Z,1004.89
2019-06-08T02:22:51.464Z,1004.74
2019-06-08T02:23:51.483Z,1004.81
2019-06-08T02:25:44.482Z,1004.86
2019-06-08T02:26:44.533Z,1004.95
2019-06-08T02:28:37.518Z,1004.89
2019-06-08T02:29:37.571Z,1004.95
2019-06-08T02:31:31.301Z,1004.89
2019-06-08T02:32:32.697Z,1004.94
2019-06-08T02:34:23.632Z,1004.96
2019-06-08T02:35:23.682Z,1004.95
2019-06-08T02:37:16.678Z,1004.95
2019-06-08T02:38:16.720Z,1005.00
2019-06-08T02:40:09.705Z,1005.04
2019-06-08T02:41:09.775Z,1005.04
2019-06-08T02:43:02.781Z,1005.11
2019-06-08T02:44:02.825Z,1005.07
2019-06-08T02:45:55.825Z,1005.04
2019-06-08T02:46:55.867Z,1005.12
2019-06-08T02:49:03.246Z,1005.02
2019-06-08T02:49:48.914Z,1005.10
2019-06-08T02:51:41.917Z,1005.10
2019-06-08T02:52:41.984Z,1005.20
2019-06-08T02:54:37.219Z,1005.18
2019-06-08T02:55:35.704Z,1005.14
2019-06-08T02:57:29.157Z,1005.19
2019-06-08T02:58:29.229Z,1005.25
2019-06-08T03:00:21.062Z,1005.25
2019-06-08T03:01:21.122Z,1005.24
2019-06-08T03:03:14.124Z,1005.19
2019-06-08T03:04:14.175Z,1005.34
2019-06-08T03:06:07.691Z,1005.47
2019-06-08T03:07:07.749Z,1005.28
2019-06-08T03:09:00.715Z,1005.32
2019-06-08T03:10:00.779Z,1005.41
2019-06-08T03:11:53.775Z,1005.49
2019-06-08T03:12:53.819Z,1005.46
2019-06-08T03:14:46.804Z,1005.47
2019-06-08T03:15:46.865Z,1005.47
2019-06-08T03:17:40.469Z,1005.47
2019-06-08T03:18:40.645Z,1005.55
2019-06-08T03:20:33.460Z,1005.62
2019-06-08T03:21:33.972Z,1005.42
2019-06-08T03:23:25.979Z,1005.52
2019-06-08T03:24:26.011Z,1005.68
2019-06-08T03:26:19.084Z,1005.62
2019-06-08T03:27:19.044Z,1005.56
2019-06-08T03:29:12.065Z,1005.77
2019-06-08T03:30:17.314Z,1005.77
2019-06-08T03:32:05.090Z,1005.80
2019-06-08T03:33:05.160Z,1005.88
2019-06-08T03:34:58.167Z,1005.86
2019-06-08T03:35:58.773Z,1005.93
2019-06-08T03:37:51.202Z,1005.79
2019-06-08T03:38:51.238Z,1006.03
2019-06-08T03:40:45.340Z,1005.98
2019-06-08T03:41:45.172Z,1006.03
2019-06-08T03:43:38.170Z,1006.02
2019-06-08T03:44:38.439Z,1006.06
2019-06-08T03:46:30.337Z,1006.05
2019-06-08T03:47:30.381Z,1006.08
2019-06-08T03:49:40.439Z,1006.14
2019-06-08T03:50:23.424Z,1006.07
2019-06-08T03:52:16.410Z,1006.10
2019-06-08T03:53:16.470Z,1006.14
2019-06-08T03:55:09.470Z,1006.19
2019-06-08T03:56:09.521Z,1006.19
2019-06-08T03:58:02.508Z,1006.22
2019-06-08T03:59:02.568Z,1006.27
2019-06-08T04:00:55.570Z,1006.27
2019-06-08T04:01:55.614Z,1006.19
2019-06-08T04:03:50.313Z,1006.25
2019-06-08T04:04:50.005Z,1006.26
2019-06-08T04:06:43.684Z,1006.30
2019-06-08T04:07:44.094Z,1006.27
2019-06-08T04:09:35.236Z,1006.23
2019-06-08T04:10:35.279Z,1006.19
2019-06-08T04:12:28.288Z,1006.19
2019-06-08T04:13:28.324Z,1006.30
2019-06-08T04:15:21.318Z,1006.23
2019-06-08T04:16:21.369Z,1006.19
2019-06-08T04:18:14.371Z,1006.25
2019-06-08T04:19:14.428Z,1006.14
2019-06-08T04:21:07.421Z,1006.17
2019-06-08T04:22:07.486Z,1006.25
2019-06-08T04:24:00.485Z,1006.26
2019-06-08T04:25:00.530Z,1006.26
2019-06-08T04:26:53.508Z,1006.29
2019-06-08T04:27:53.573Z,1006.30
2019-06-08T04:29:46.577Z,1006.36
2019-06-08T04:30:49.174Z,1006.38
2019-06-08T04:32:40.715Z,1006.49
2019-06-08T04:33:40.368Z,1006.40
2019-06-08T04:35:32.644Z,1006.47
2019-06-08T04:36:32.705Z,1006.39
2019-06-08T04:38:25.715Z,1006.46
2019-06-08T04:39:25.751Z,1006.58
2019-06-08T04:41:18.761Z,1006.62
2019-06-08T04:42:18.802Z,1006.50
2019-06-08T04:44:11.812Z,1006.59
2019-06-08T04:45:11.848Z,1006.51
2019-06-08T04:47:04.846Z,1006.59
2019-06-08T04:48:09.368Z,1006.64
2019-06-08T04:49:57.891Z,1006.62
2019-06-08T04:50:57.954Z,1006.61
2019-06-08T04:52:50.961Z,1006.70
2019-06-08T04:53:50.997Z,1006.64
2019-06-08T04:55:45.104Z,1006.69
2019-06-08T04:56:44.894Z,1006.74
2019-06-08T04:58:39.087Z,1006.81
2019-06-08T04:59:38.826Z,1006.72
2019-06-08T05:01:30.076Z,1006.80
2019-06-08T05:02:30.145Z,1006.77
2019-06-08T05:04:23.159Z,1006.74
2019-06-08T05:05:23.201Z,1006.94
2019-06-08T05:07:16.204Z,1006.77
2019-06-08T05:08:16.243Z,1006.75
2019-06-08T05:10:09.246Z,1006.86
2019-06-08T05:11:09.292Z,1006.72
2019-06-08T05:13:02.274Z,1006.61
2019-06-08T05:14:02.345Z,1006.83
2019-06-08T05:15:55.336Z,1006.84
2019-06-08T05:16:55.388Z,1006.82
2019-06-08T05:18:49.668Z,1006.84
2019-06-08T05:19:50.311Z,1006.81
2019-06-08T05:21:41.642Z,1006.83
2019-06-08T05:22:41.562Z,1006.88
2019-06-08T05:24:34.473Z,1006.88
2019-06-08T05:25:34.533Z,1006.89
2019-06-08T05:27:27.719Z,1006.98
2019-06-08T05:28:27.582Z,1006.89
2019-06-08T05:30:20.580Z,1006.91
2019-06-08T05:31:20.626Z,1007.03
2019-06-08T05:33:13.649Z,1007.07
2019-06-08T05:34:13.694Z,1006.94
2019-06-08T05:36:06.701Z,1006.92
2019-06-08T05:37:06.731Z,1006.90
2019-06-08T05:38:59.715Z,1007.00
2019-06-08T05:39:59.773Z,1006.99
2019-06-08T05:41:52.779Z,1007.02
2019-06-08T05:42:52.832Z,1007.02
2019-06-08T05:44:45.814Z,1006.91
2019-06-08T05:45:45.875Z,1006.99
2019-06-08T05:47:39.756Z,1007.02
2019-06-08T05:48:39.752Z,1007.07
2019-06-08T05:50:31.942Z,1006.97
2019-06-08T05:51:31.992Z,1007.02
2019-06-08T05:53:24.987Z,1006.93
2019-06-08T05:54:25.028Z,1007.06
2019-06-08T05:56:18.032Z,1007.05
2019-06-08T05:57:18.075Z,1007.12
2019-06-08T05:59:11.058Z,1007.06
2019-06-08T06:00:11.183Z,1007.09
2019-06-08T06:02:04.127Z,1007.12
2019-06-08T06:03:04.172Z,1007.05
2019-06-08T06:04:57.181Z,1007.06
2019-06-08T06:05:57.213Z,1007.13
2019-06-08T06:07:51.240Z,1007.13
2019-06-08T06:08:50.946Z,1007.01
2019-06-08T06:10:43.249Z,1007.12
2019-06-08T06:11:44.721Z,1007.19
2019-06-08T06:13:36.306Z,1007.13
2019-06-08T06:14:37.015Z,1007.17
2019-06-08T06:16:29.352Z,1007.19
2019-06-08T06:17:29.411Z,1007.37
2019-06-08T06:19:22.416Z,1007.34
2019-06-08T06:20:22.462Z,1007.36
2019-06-08T06:22:15.441Z,1007.29
2019-06-08T06:23:15.501Z,1007.43
2019-06-08T06:25:08.504Z,1007.34
2019-06-08T06:26:08.547Z,1007.43
2019-06-08T06:28:01.597Z,1007.32
2019-06-08T06:29:01.609Z,1007.51
2019-06-08T06:30:54.614Z,1007.43
2019-06-08T06:31:54.658Z,1007.56
2019-06-08T06:33:48.021Z,1007.75
2019-06-08T06:34:47.974Z,1007.66
2019-06-08T06:36:41.695Z,1007.47
2019-06-08T06:37:41.819Z,1007.79
2019-06-08T06:39:33.766Z,1007.72
2019-06-08T06:40:33.810Z,1007.53
2019-06-08T06:42:26.794Z,1007.72
2019-06-08T06:43:26.853Z,1007.74
2019-06-08T06:45:19.855Z,1007.73
2019-06-08T06:46:19.898Z,1007.89
2019-06-08T06:48:12.903Z,1007.87
2019-06-08T06:49:12.940Z,1007.86
2019-06-08T06:51:05.939Z,1007.98
2019-06-08T06:52:05.995Z,1007.95
2019-06-08T06:53:59.004Z,1007.99
2019-06-08T06:54:59.048Z,1008.05
2019-06-08T06:56:52.060Z,1007.98
2019-06-08T06:57:53.430Z,1007.90
2019-06-08T06:59:45.662Z,1008.02
2019-06-08T07:00:45.268Z,1008.20
2019-06-08T07:02:38.210Z,1008.21
2019-06-08T07:03:38.195Z,1008.18
2019-06-08T07:05:31.211Z,1008.27
2019-06-08T07:06:31.256Z,1008.29
2019-06-08T07:08:24.263Z,1008.18
2019-06-08T07:09:24.298Z,1008.34
2019-06-08T07:11:17.277Z,1008.37
2019-06-08T07:12:17.340Z,1008.31
2019-06-08T07:14:10.342Z,1008.37
2019-06-08T07:15:10.382Z,1008.35
2019-06-08T07:17:03.371Z,1008.46
2019-06-08T07:18:03.437Z,1008.42
2019-06-08T07:19:56.432Z,1008.44
2019-06-08T07:20:56.473Z,1008.59
2019-06-08T07:22:50.226Z,1008.63
2019-06-08T07:23:51.138Z,1008.76
2019-06-08T07:25:42.501Z,1008.63
2019-06-08T07:26:42.570Z,1008.72
2019-06-08T07:28:35.566Z,1008.70
2019-06-08T07:29:35.607Z,1008.60
2019-06-08T07:31:28.636Z,1008.73
2019-06-08T07:32:28.666Z,1008.78
2019-06-08T07:34:21.673Z,1008.82
2019-06-08T07:35:21.718Z,1008.79
2019-06-08T07:37:14.733Z,1008.83
2019-06-08T07:38:14.757Z,1008.81
2019-06-08T07:40:07.769Z,1008.89
2019-06-08T07:41:07.811Z,1008.89
2019-06-08T07:43:00.786Z,1008.90
2019-06-08T07:44:00.874Z,1008.94
2019-06-08T07:45:54.223Z,1008.94
2019-06-08T07:46:53.901Z,1008.91
2019-06-08T07:48:48.070Z,1008.97
2019-06-08T07:49:47.088Z,1009.05
2019-06-08T07:51:39.937Z,1009.01
2019-06-08T07:52:39.998Z,1009.06
2019-06-08T07:54:32.990Z,1009.07
2019-06-08T07:55:33.027Z,1009.04
2019-06-08T07:57:26.050Z,1009.14
2019-06-08T07:58:26.087Z,1009.05
2019-06-08T08:00:19.115Z,1009.09
2019-06-08T08:01:34.990Z,1009.23
2019-06-08T08:03:12.137Z,1009.13
2019-06-08T08:04:12.192Z,1009.17
2019-06-08T08:06:05.714Z,1009.24
2019-06-08T08:07:05.743Z,1009.21
2019-06-08T08:08:58.955Z,1009.18
2019-06-08T08:09:58.921Z,1009.27
2019-06-08T08:11:52.865Z,1009.27
2019-06-08T08:12:52.689Z,1009.32
2019-06-08T08:14:44.850Z,1009.23
2019-06-08T08:15:44.894Z,1009.31
2019-06-08T08:17:37.908Z,1009.34
2019-06-08T08:18:37.939Z,1009.21
2019-06-08T08:20:30.923Z,1009.35
2019-06-08T08:21:30.992Z,1009.34
2019-06-08T08:23:24.009Z,1009.36
2019-06-08T08:24:24.040Z,1009.41
2019-06-08T08:26:17.057Z,1009.44
2019-06-08T08:27:17.917Z,1009.44
2019-06-08T08:29:10.103Z,1009.46
2019-06-08T08:30:10.154Z,1009.50
2019-06-08T08:32:03.158Z,1009.47
2019-06-08T08:33:03.540Z,1009.55
2019-06-08T08:34:58.747Z,1009.54
2019-06-08T08:35:58.614Z,1009.54
2019-06-08T08:37:53.105Z,1009.52
2019-06-08T08:38:51.554Z,1009.55
2019-06-08T08:40:42.302Z,1009.59
2019-06-08T08:41:42.346Z,1009.64
2019-06-08T08:43:37.576Z,1009.70
2019-06-08T08:44:37.803Z,1009.70
2019-06-08T08:46:28.690Z,1009.68
2019-06-08T08:47:30.771Z,1009.63
2019-06-08T08:49:21.490Z,1009.67
2019-06-08T08:50:21.531Z,1009.82
2019-06-08T08:52:14.529Z,1009.75
2019-06-08T08:53:14.565Z,1009.79
2019-06-08T08:55:08.280Z,1009.79
2019-06-08T08:56:07.623Z,1009.85
2019-06-08T08:58:02.091Z,1009.84
2019-06-08T08:59:01.651Z,1009.92
2019-06-08T09:00:54.210Z,1009.85
2019-06-08T09:01:54.774Z,1009.87
2019-06-08T09:03:48.261Z,1009.93
2019-06-08T09:04:47.737Z,1009.92
2019-06-08T09:06:40.273Z,1009.88
2019-06-08T09:07:40.329Z,1010.00
2019-06-08T09:09:33.353Z,1009.95
2019-06-08T09:10:33.384Z,1010.01
2019-06-08T09:12:27.710Z,1009.94
2019-06-08T09:13:28.141Z,1009.76
2019-06-08T09:15:19.456Z,1009.97
2019-06-08T09:16:19.496Z,1010.02
2019-06-08T09:18:12.479Z,1010.02
2019-06-08T09:19:12.538Z,1010.04
2019-06-08T09:21:08.161Z,1010.03
2019-06-08T09:22:05.611Z,1009.96
2019-06-08T09:24:01.984Z,1010.06
2019-06-08T09:25:02.547Z,1010.12
2019-06-08T09:26:52.941Z,1010.10
2019-06-08T09:27:52.745Z,1010.12
2019-06-08T09:29:44.681Z,1010.14
2019-06-08T09:30:44.740Z,1010.18
2019-06-08T09:32:38.308Z,1010.32
2019-06-08T09:33:38.828Z,1010.21
2019-06-08T09:35:30.781Z,1010.12
2019-06-08T09:36:30.835Z,1010.30
2019-06-08T09:38:23.866Z,1010.15
2019-06-08T09:39:23.886Z,1010.24
2019-06-08T09:41:18.648Z,1010.36
2019-06-08T09:42:20.940Z,1010.32
2019-06-08T09:44:11.535Z,1010.24
2019-06-08T09:45:10.007Z,1010.33
2019-06-08T09:47:09.445Z,1010.27
2019-06-08T09:48:05.283Z,1010.29
2019-06-08T09:49:58.804Z,1010.28
2019-06-08T09:50:57.675Z,1010.50
2019-06-08T09:52:49.101Z,1010.42
2019-06-08T09:53:49.164Z,1010.34
2019-06-08T09:55:42.132Z,1010.45
2019-06-08T09:56:42.230Z,1010.51
2019-06-08T09:58:35.209Z,1010.46
2019-06-08T09:59:35.239Z,1010.42
2019-06-08T10:01:28.753Z,1010.49
2019-06-08T10:02:28.483Z,1010.44
2019-06-08T10:04:21.338Z,1010.44
2019-06-08T10:05:21.345Z,1010.40
2019-06-08T10:07:14.353Z,1010.47
2019-06-08T10:08:14.402Z,1010.38
2019-06-08T10:10:09.870Z,1010.43
2019-06-08T10:11:09.673Z,1010.59
2019-06-08T10:13:03.734Z,1010.54
2019-06-08T10:14:04.739Z,1010.42
2019-06-08T10:15:54.939Z,1010.45
2019-06-08T10:16:54.155Z,1010.58
2019-06-08T10:18:51.085Z,1010.59
2019-06-08T10:19:47.681Z,1010.73
2019-06-08T10:21:42.958Z,1010.66
2019-06-08T10:22:39.670Z,1010.64
2019-06-08T10:24:33.669Z,1010.66
2019-06-08T10:25:33.730Z,1010.71
2019-06-08T10:27:28.351Z,1010.59
2019-06-08T10:28:28.979Z,1010.72
2019-06-08T10:30:21.290Z,1010.70
2019-06-08T10:31:35.706Z,1010.71
2019-06-08T10:33:14.359Z,1010.83
2019-06-08T10:34:14.399Z,1010.83
2019-06-08T10:36:12.207Z,1010.82
2019-06-08T10:37:12.705Z,1010.92
2019-06-08T10:39:03.844Z,1010.92
2019-06-08T10:40:03.393Z,1010.87
2019-06-08T10:41:53.490Z,1010.90
2019-06-08T10:42:53.524Z,1010.91
2019-06-08T10:44:46.553Z,1010.90
2019-06-08T10:45:48.284Z,1010.97
2019-06-08T10:47:39.675Z,1011.05
2019-06-08T10:48:39.661Z,1010.97
2019-06-08T10:50:32.688Z,1010.92
2019-06-08T10:51:32.712Z,1010.97
2019-06-08T10:53:25.708Z,1011.00
2019-06-08T10:54:27.747Z,1011.01
2019-06-08T10:56:19.010Z,1011.00
2019-06-08T10:57:18.813Z,1011.03
2019-06-08T10:59:12.457Z,1011.03
2019-06-08T11:00:20.206Z,1010.97
2019-06-08T11:02:07.334Z,1011.11
2019-06-08T11:03:05.863Z,1010.95
2019-06-08T11:05:02.566Z,1010.97
2019-06-08T11:06:00.454Z,1010.97
2019-06-08T11:07:50.977Z,1011.20
2019-06-08T11:08:51.052Z,1011.22
2019-06-08T11:10:44.051Z,1011.21
2019-06-08T11:11:44.089Z,1011.13
2019-06-08T11:13:37.080Z,1011.21
2019-06-08T11:14:38.254Z,1011.26
2019-06-08T11:16:30.170Z,1011.29
2019-06-08T11:17:30.203Z,1011.32
2019-06-08T11:19:26.319Z,1011.28
2019-06-08T11:20:23.249Z,1011.47
2019-06-08T11:22:18.030Z,1011.36
2019-06-08T11:23:18.732Z,1011.34
2019-06-08T11:25:16.281Z,1011.39
2019-06-08T11:26:17.507Z,1011.37
2019-06-08T11:28:03.717Z,1011.41
2019-06-08T11:29:02.943Z,1011.34
2019-06-08T11:30:55.437Z,1011.29
2019-06-08T11:31:58.255Z,1011.28
2019-06-08T11:33:49.050Z,1011.30
2019-06-08T11:34:48.862Z,1011.43
2019-06-08T11:36:41.531Z,1011.35
2019-06-08T11:37:41.558Z,1011.35
2019-06-08T11:39:34.547Z,1011.45
2019-06-08T11:40:34.609Z,1011.49
2019-06-08T11:42:28.653Z,1011.56
2019-06-08T11:43:28.737Z,1011.49
2019-06-08T11:45:20.673Z,1011.42
2019-06-08T11:46:21.943Z,1011.57
2019-06-08T11:48:13.761Z,1011.54
2019-06-08T11:49:15.231Z,1011.54
2019-06-08T11:51:09.569Z,1011.59
2019-06-08T11:52:06.968Z,1011.60
2019-06-08T11:54:01.051Z,1011.59
2019-06-08T11:55:00.716Z,1011.62
2019-06-08T11:56:52.865Z,1011.77
2019-06-08T11:57:52.930Z,1011.71
2019-06-08T11:59:48.322Z,1011.70
2019-06-08T12:00:45.987Z,1011.66
2019-06-08T12:02:41.358Z,1011.71
2019-06-08T12:03:39.052Z,1011.73
2019-06-08T12:05:32.036Z,1011.75
2019-06-08T12:06:32.100Z,1011.70
2019-06-08T12:08:25.122Z,1011.77
2019-06-08T12:09:25.161Z,1011.81
2019-06-08T12:11:20.872Z,1011.70
2019-06-08T12:12:21.252Z,1011.74
2019-06-08T12:14:12.698Z,1011.85
2019-06-08T12:15:13.222Z,1011.83
2019-06-08T12:17:05.213Z,1011.93
2019-06-08T12:18:05.332Z,1011.90
2019-06-08T12:19:57.694Z,1012.03
2019-06-08T12:20:58.395Z,1012.03
2019-06-08T12:22:50.350Z,1012.05
2019-06-08T12:23:50.413Z,1011.80
2019-06-08T12:25:43.428Z,1011.99
2019-06-08T12:26:43.464Z,1012.05
2019-06-08T12:28:38.141Z,1012.13
2019-06-08T12:29:36.514Z,1012.07
2019-06-08T12:31:29.519Z,1012.19
2019-06-08T12:32:29.567Z,1012.15
2019-06-08T12:34:22.550Z,1012.14
2019-06-08T12:35:22.612Z,1012.22
2019-06-08T12:37:19.766Z,1012.24
2019-06-08T12:38:16.521Z,1012.18
2019-06-08T12:40:11.688Z,1012.25
2019-06-08T12:41:10.766Z,1012.30
2019-06-08T12:43:01.718Z,1012.25
2019-06-08T12:44:01.763Z,1012.25
2019-06-08T12:45:54.752Z,1012.25
2019-06-08T12:46:54.810Z,1012.12
2019-06-08T12:48:47.815Z,1012.12
2019-06-08T12:49:48.428Z,1012.14
2019-06-08T12:51:40.850Z,1012.14
2019-06-08T12:52:43.154Z,1012.16
2019-06-08T12:54:33.933Z,1012.10
2019-06-08T12:55:33.971Z,1012.13
2019-06-08T12:57:28.584Z,1012.18
2019-06-08T12:58:27.613Z,1012.23
2019-06-08T13:00:21.433Z,1012.16
2019-06-08T13:01:20.089Z,1012.11
2019-06-08T13:03:13.086Z,1012.20
2019-06-08T13:04:13.801Z,1012.11
2019-06-08T13:06:08.735Z,1012.29
2019-06-08T13:07:08.397Z,1012.25
2019-06-08T13:08:59.239Z,1012.15
2019-06-08T13:09:59.265Z,1012.04
2019-06-08T13:11:52.263Z,1012.08
2019-06-08T13:12:52.321Z,1012.14
2019-06-08T13:14:45.331Z,1012.13
2019-06-08T13:15:45.385Z,1012.13
2019-06-08T13:17:38.394Z,1012.18
2019-06-08T13:18:40.725Z,1012.20
2019-06-08T13:20:31.459Z,1012.30
2019-06-08T13:21:34.987Z,1012.11
2019-06-08T13:23:24.501Z,1012.34
2019-06-08T13:24:24.545Z,1012.33
2019-06-08T13:26:26.853Z,1012.39
2019-06-08T13:27:21.103Z,1012.52
2019-06-08T13:29:11.033Z,1012.39
2019-06-08T13:30:11.634Z,1012.33
2019-06-08T13:32:03.677Z,1012.47
2019-06-08T13:33:03.731Z,1012.35
2019-06-08T13:34:58.277Z,1012.40
2019-06-08T13:35:57.994Z,1012.36
2019-06-08T13:37:49.802Z,1012.32
2019-06-08T13:38:49.838Z,1012.29
2019-06-08T13:40:42.850Z,1012.27
2019-06-08T13:41:42.914Z,1012.24
2019-06-08T13:43:35.944Z,1012.24
2019-06-08T13:44:37.820Z,1012.30
2019-06-08T13:46:28.974Z,1012.13
2019-06-08T13:47:29.151Z,1012.27
2019-06-08T13:49:26.741Z,1012.25
2019-06-08T13:50:23.871Z,1012.27
2019-06-08T13:52:16.231Z,1012.25
2019-06-08T13:53:17.921Z,1012.33
2019-06-08T13:55:08.141Z,1012.13
2019-06-08T13:56:08.203Z,1012.30
2019-06-08T13:58:01.228Z,1012.35
2019-06-08T13:59:01.267Z,1012.29
2019-06-08T14:00:56.755Z,1012.29
2019-06-08T14:01:54.320Z,1012.20
2019-06-08T14:03:49.802Z,1012.33
2019-06-08T14:04:48.987Z,1012.17
2019-06-08T14:06:40.377Z,1012.33
2019-06-08T14:07:40.424Z,1012.19
2019-06-08T14:09:33.436Z,1012.32
2019-06-08T14:10:33.483Z,1012.35
2019-06-08T14:12:30.690Z,1012.29
2019-06-08T14:13:31.115Z,1012.37
2019-06-08T14:15:19.543Z,1012.55
2019-06-08T14:16:20.615Z,1012.34
2019-06-08T14:18:12.575Z,1012.32
2019-06-08T14:19:12.634Z,1012.33
2019-06-08T14:21:05.685Z,1012.28
2019-06-08T14:22:05.693Z,1012.21
2019-06-08T14:23:58.860Z,1012.30
2019-06-08T14:24:58.758Z,1012.31
2019-06-08T14:26:51.769Z,1012.22
2019-06-08T14:27:51.802Z,1012.31
2019-06-08T14:29:45.304Z,1012.17
2019-06-08T14:30:45.364Z,1012.26
2019-06-08T14:32:38.375Z,1012.19
2019-06-08T14:33:38.415Z,1012.20
2019-06-08T14:35:31.406Z,1012.23
2019-06-08T14:36:31.469Z,1012.25
2019-06-08T14:38:31.714Z,1012.12
2019-06-08T14:39:24.607Z,1012.30
2019-06-08T14:41:18.246Z,1012.25
2019-06-08T14:42:23.534Z,1012.33
2019-06-08T14:44:10.610Z,1012.40
2019-06-08T14:45:11.001Z,1012.30
2019-06-08T14:47:03.639Z,1012.35
2019-06-08T14:48:03.699Z,1012.38
2019-06-08T14:49:58.462Z,1012.38
2019-06-08T14:50:58.608Z,1012.41
2019-06-08T14:52:50.429Z,1012.31
2019-06-08T14:53:49.807Z,1012.17
2019-06-08T14:55:42.821Z,1012.37
2019-06-08T14:56:42.867Z,1012.32
2019-06-08T14:58:38.390Z,1012.32
2019-06-08T14:59:35.929Z,1012.29
2019-06-08T15:01:31.197Z,1012.20
2019-06-08T15:02:31.310Z,1012.32
2019-06-08T15:04:23.859Z,1012.16
2019-06-08T15:05:23.266Z,1012.33
2019-06-08T15:07:15.044Z,1012.34
2019-06-08T15:08:17.441Z,1012.34
2019-06-08T15:10:10.053Z,1012.38
2019-06-08T15:11:08.294Z,1012.34
2019-06-08T15:13:01.143Z,1012.39
2019-06-08T15:14:01.192Z,1012.39
2019-06-08T15:15:54.207Z,1012.43
2019-06-08T15:16:54.251Z,1012.49
2019-06-08T15:18:47.275Z,1012.55
2019-06-08T15:19:47.594Z,1012.38
2019-06-08T15:21:40.301Z,1012.51
2019-06-08T15:22:40.363Z,1012.49
2019-06-08T15:24:33.377Z,1012.60
2019-06-08T15:25:33.414Z,1012.63
2019-06-08T15:27:30.017Z,1012.57
2019-06-08T15:28:29.013Z,1012.67
2019-06-08T15:30:21.156Z,1012.75
2019-06-08T15:31:21.109Z,1012.63
2019-06-08T15:33:13.027Z,1012.80
2019-06-08T15:34:13.079Z,1012.75
2019-06-08T15:36:08.347Z,1012.81
2019-06-08T15:37:08.772Z,1012.82
2019-06-08T15:38:59.120Z,1012.89
2019-06-08T15:39:59.184Z,1012.76
2019-06-08T15:41:52.215Z,1012.98
2019-06-08T15:42:52.240Z,1013.04
2019-06-08T15:44:47.838Z,1012.92
2019-06-08T15:45:45.290Z,1012.94
2019-06-08T15:47:40.654Z,1013.00
2019-06-08T15:48:38.343Z,1013.03
2019-06-08T15:50:32.627Z,1013.07
2019-06-08T15:51:37.293Z,1013.11
2019-06-08T15:53:24.432Z,1013.15
2019-06-08T15:54:24.660Z,1013.15
2019-06-08T15:56:18.686Z,1013.24
2019-06-08T15:57:18.106Z,1013.49
2019-06-08T15:59:10.554Z,1013.48
2019-06-08T16:00:10.610Z,1013.53
2019-06-08T16:02:03.591Z,1013.45
2019-06-08T16:03:03.651Z,1013.42
2019-06-08T16:04:56.656Z,1013.53
2019-06-08T16:05:56.703Z,1013.53
2019-06-08T16:07:49.738Z,1013.61
2019-06-08T16:08:49.751Z,1013.52
2019-06-08T16:10:42.838Z,1013.57
2019-06-08T16:11:42.802Z,1013.48
2019-06-08T16:13:35.823Z,1013.55
2019-06-08T16:14:35.854Z,1013.55
2019-06-08T16:16:29.145Z,1013.52
2019-06-08T16:17:29.260Z,1013.45
2019-06-08T16:19:21.919Z,1013.55
2019-06-08T16:20:21.971Z,1013.70
2019-06-08T16:22:15.080Z,1013.78
2019-06-08T16:23:15.023Z,1013.75
2019-06-08T16:25:08.040Z,1013.87
2019-06-08T16:26:08.086Z,1013.77
2019-06-08T16:28:01.106Z,1013.85
2019-06-08T16:29:01.161Z,1013.98
2019-06-08T16:30:54.136Z,1014.21
2019-06-08T16:31:54.187Z,1014.16
2019-06-08T16:33:47.211Z,1014.18
2019-06-08T16:34:47.248Z,1014.21
2019-06-08T16:36:40.266Z,1014.19
2019-06-08T16:37:40.313Z,1014.14
2019-06-08T16:39:33.323Z,1014.16
2019-06-08T16:40:34.277Z,1014.15
2019-06-08T16:42:27.584Z,1014.06
2019-06-08T16:43:26.865Z,1014.04
2019-06-08T16:45:20.932Z,1014.05
2019-06-08T16:46:20.974Z,1014.04
2019-06-08T16:48:13.979Z,1013.96
2019-06-08T16:49:14.030Z,1014.16
2019-06-08T16:51:07.029Z,1014.05
2019-06-08T16:52:07.075Z,1014.03
2019-06-08T16:54:00.063Z,1013.95
2019-06-08T16:55:00.124Z,1014.00
2019-06-08T16:57:06.159Z,1014.20
2019-06-08T16:57:53.180Z,1014.23
2019-06-08T16:59:46.172Z,1014.29
2019-06-08T17:00:46.238Z,1014.34
2019-06-08T17:02:39.460Z,1014.48
2019-06-08T17:03:39.290Z,1014.43
2019-06-08T17:05:33.187Z,1014.55
2019-06-08T17:06:33.333Z,1014.61
2019-06-08T17:08:25.353Z,1014.52
2019-06-08T17:09:25.392Z,1014.70
2019-06-08T17:11:18.405Z,1014.56
2019-06-08T17:12:18.557Z,1014.49
2019-06-08T17:14:11.427Z,1014.56
2019-06-08T17:15:11.492Z,1014.58
2019-06-08T17:17:04.493Z,1014.36
2019-06-08T17:18:04.536Z,1014.23
2019-06-08T17:19:57.523Z,1014.29
2019-06-08T17:20:57.585Z,1014.24
2019-06-08T17:22:50.605Z,1014.18
2019-06-08T17:23:50.636Z,1014.17
2019-06-08T17:25:43.624Z,1014.20
2019-06-08T17:26:43.707Z,1014.15